createdAt,value
2023-05-25T00:00:25.742Z,9.678118
2023-05-25T00:01:25.702Z,9.678092
2023-05-25T00:02:25.819Z,9.678114
2023-05-25T00:03:25.793Z,9.678102
2023-05-25T00:04:25.841Z,9.678071
2023-05-25T00:05:25.700Z,9.678131
2023-05-25T00:06:25.684Z,9.678104
2023-05-25T00:07:25.701Z,9.678128
2023-05-25T00:08:25.730Z,9.678093
2023-05-25T00:09:25.642Z,9.678056
2023-05-25T00:10:25.641Z,9.678125
2023-05-25T00:11:25.631Z,9.678089
2023-05-25T00:12:25.622Z,9.678115
2023-05-25T00:13:25.663Z,9.678093
2023-05-25T00:14:25.595Z,9.678107
2023-05-25T00:15:25.586Z,9.678113
2023-05-25T00:16:25.601Z,9.678115
2023-05-25T00:17:25.579Z,9.678090
2023-05-25T00:18:25.596Z,9.678128
2023-05-25T00:19:25.690Z,9.678062
2023-05-25T00:20:25.609Z,9.678101
2023-05-25T00:21:25.560Z,9.678128
2023-05-25T00:22:25.542Z,9.678124
2023-05-25T00:23:25.523Z,9.678100
2023-05-25T00:24:25.525Z,9.678085
2023-05-25T00:25:25.520Z,9.678052
2023-05-25T00:26:25.495Z,9.678025
2023-05-25T00:27:25.473Z,9.678035
2023-05-25T00:28:25.487Z,9.678018
2023-05-25T00:29:26.184Z,9.678003
2023-05-25T00:30:25.477Z,9.678038
2023-05-25T00:31:25.508Z,9.678047
2023-05-25T00:32:25.484Z,9.678077
2023-05-25T00:33:25.430Z,9.678082
2023-05-25T00:34:25.432Z,9.678072
2023-05-25T00:35:25.416Z,9.678025
2023-05-25T00:36:25.420Z,9.677984
2023-05-25T00:37:25.422Z,9.678008
2023-05-25T00:38:25.427Z,9.678018
2023-05-25T00:39:25.391Z,9.678041
2023-05-25T00:40:25.394Z,9.678047
2023-05-25T00:41:25.377Z,9.678045
2023-05-25T00:42:25.374Z,9.678022
2023-05-25T00:43:25.345Z,9.678069
2023-05-25T00:44:25.367Z,9.678016
2023-05-25T00:45:25.331Z,9.678028
2023-05-25T00:46:25.359Z,9.678058
2023-05-25T00:47:25.327Z,9.678015
2023-05-25T00:48:25.326Z,9.678040
2023-05-25T00:49:25.341Z,9.678047
2023-05-25T00:50:25.306Z,9.678058
2023-05-25T00:51:25.274Z,9.678074
2023-05-25T00:52:25.271Z,9.678095
2023-05-25T00:53:25.261Z,9.678048
2023-05-25T00:54:25.253Z,9.678021
2023-05-25T00:55:25.258Z,9.678019
2023-05-25T00:56:25.244Z,9.678023
2023-05-25T00:57:25.239Z,9.678032
2023-05-25T00:58:25.239Z,9.678049
2023-05-25T00:59:25.234Z,9.678096
2023-05-25T01:00:25.209Z,9.677999
2023-05-25T01:01:25.271Z,9.678045
2023-05-25T01:02:25.266Z,9.678058
2023-05-25T01:03:25.285Z,9.678003
2023-05-25T01:04:25.174Z,9.677965
2023-05-25T01:05:25.169Z,9.678002
2023-05-25T01:06:25.161Z,9.677991
2023-05-25T01:07:25.158Z,9.678132
2023-05-25T01:08:25.194Z,9.678097
2023-05-25T01:09:25.633Z,9.678045
2023-05-25T01:10:25.135Z,9.678124
2023-05-25T01:11:25.126Z,9.678112
2023-05-25T01:12:25.156Z,9.678079
2023-05-25T01:13:25.112Z,9.678092
2023-05-25T01:14:25.115Z,9.678134
2023-05-25T01:15:25.077Z,9.677991
2023-05-25T01:16:25.140Z,9.678080
2023-05-25T01:17:25.157Z,9.678101
2023-05-25T01:18:25.104Z,9.678082
2023-05-25T01:19:25.060Z,9.678115
2023-05-25T01:20:25.076Z,9.678062
2023-05-25T01:21:25.022Z,9.678005
2023-05-25T01:22:25.029Z,9.678019
2023-05-25T01:23:25.004Z,9.678032
2023-05-25T01:24:25.030Z,9.678050
2023-05-25T01:25:24.990Z,9.678089
2023-05-25T01:26:24.983Z,9.678123
2023-05-25T01:27:24.988Z,9.678126
2023-05-25T01:28:24.988Z,9.678100
2023-05-25T01:29:24.959Z,9.678078
2023-05-25T01:30:25.003Z,9.678091
2023-05-25T01:31:24.948Z,9.678063
2023-05-25T01:32:24.962Z,9.678074
2023-05-25T01:33:24.943Z,9.678102
2023-05-25T01:34:24.927Z,9.678102
2023-05-25T01:35:24.938Z,9.678075
2023-05-25T01:36:24.907Z,9.678076
2023-05-25T01:37:24.891Z,9.678082
2023-05-25T01:38:24.897Z,9.678111
2023-05-25T01:39:24.896Z,9.678067
2023-05-25T01:40:24.865Z,9.678039
2023-05-25T01:41:24.896Z,9.678082
2023-05-25T01:42:24.855Z,9.678113
2023-05-25T01:43:24.852Z,9.678081
2023-05-25T01:44:24.856Z,9.678080
2023-05-25T01:45:24.854Z,9.678050
2023-05-25T01:46:24.883Z,9.678070
2023-05-25T01:47:24.849Z,9.678093
2023-05-25T01:48:24.844Z,9.678060
2023-05-25T01:49:24.792Z,9.678102
2023-05-25T01:50:24.822Z,9.678051
2023-05-25T01:51:24.963Z,9.678067
2023-05-25T01:52:24.827Z,9.678067
2023-05-25T01:53:24.773Z,9.678098
2023-05-25T01:54:24.761Z,9.678073
2023-05-25T01:55:24.738Z,9.678125
2023-05-25T01:56:24.764Z,9.678080
2023-05-25T01:57:24.742Z,9.678118
2023-05-25T01:58:24.719Z,9.678115
2023-05-25T01:59:24.740Z,9.678099
2023-05-25T02:00:24.766Z,9.678118
2023-05-25T02:01:24.811Z,9.678139
2023-05-25T02:02:24.714Z,9.678130
2023-05-25T02:03:24.707Z,9.678143
2023-05-25T02:04:24.712Z,9.678112
2023-05-25T02:05:24.708Z,9.678130
2023-05-25T02:06:24.676Z,9.678118
2023-05-25T02:07:24.675Z,9.678111
2023-05-25T02:08:24.633Z,9.678069
2023-05-25T02:09:24.653Z,9.678094
2023-05-25T02:10:24.605Z,9.678080
2023-05-25T02:11:24.608Z,9.678122
2023-05-25T02:12:24.604Z,9.678098
2023-05-25T02:13:24.691Z,9.678065
2023-05-25T02:14:24.600Z,9.678073
2023-05-25T02:15:24.591Z,9.678117
2023-05-25T02:16:24.659Z,9.678099
2023-05-25T02:17:24.660Z,9.678098
2023-05-25T02:18:24.618Z,9.678105
2023-05-25T02:19:24.558Z,9.678087
2023-05-25T02:20:24.558Z,9.678145
2023-05-25T02:21:24.552Z,9.678112
2023-05-25T02:22:24.536Z,9.678098
2023-05-25T02:23:24.521Z,9.678084
2023-05-25T02:24:24.556Z,9.678068
2023-05-25T02:25:24.500Z,9.678122
2023-05-25T02:26:24.491Z,9.678139
2023-05-25T02:27:24.490Z,9.678114
2023-05-25T02:28:24.483Z,9.678088
2023-05-25T02:29:24.492Z,9.678083
2023-05-25T02:30:24.510Z,9.678091
2023-05-25T02:31:24.508Z,9.678101
2023-05-25T02:32:24.478Z,9.678090
2023-05-25T02:33:24.451Z,9.678105
2023-05-25T02:34:24.432Z,9.678099
2023-05-25T02:35:24.469Z,9.678072
2023-05-25T02:36:24.517Z,9.678104
2023-05-25T02:37:24.434Z,9.678131
2023-05-25T02:38:24.431Z,9.678106
2023-05-25T02:39:24.419Z,9.678082
2023-05-25T02:40:24.397Z,9.678096
2023-05-25T02:41:24.401Z,9.678082
2023-05-25T02:42:24.396Z,9.678084
2023-05-25T02:43:24.391Z,9.678122
2023-05-25T02:44:24.393Z,9.678121
2023-05-25T02:45:24.372Z,9.678078
2023-05-25T02:46:24.406Z,9.678139
2023-05-25T02:47:24.377Z,9.678128
2023-05-25T02:48:24.396Z,9.678082
2023-05-25T02:49:24.334Z,9.678076
2023-05-25T02:50:24.316Z,9.678067
2023-05-25T02:51:24.337Z,9.678039
2023-05-25T02:52:24.312Z,9.678050
2023-05-25T02:53:24.300Z,9.678052
2023-05-25T02:54:24.325Z,9.678063
2023-05-25T02:55:24.291Z,9.678073
2023-05-25T02:56:24.264Z,9.678078
2023-05-25T02:57:24.282Z,9.678104
2023-05-25T02:58:24.249Z,9.678100
2023-05-25T02:59:24.257Z,9.678072
2023-05-25T03:00:24.294Z,9.678076
2023-05-25T03:01:24.311Z,9.678047
2023-05-25T03:02:24.231Z,9.678076
2023-05-25T03:03:24.238Z,9.678072
2023-05-25T03:04:24.225Z,9.678077
2023-05-25T03:05:24.197Z,9.678106
2023-05-25T03:06:24.226Z,9.678064
2023-05-25T03:07:24.210Z,9.678103
2023-05-25T03:08:24.189Z,9.678128
2023-05-25T03:09:24.179Z,9.678133
2023-05-25T03:10:24.154Z,9.678125
2023-05-25T03:11:24.148Z,9.678119
2023-05-25T03:12:24.180Z,9.678114
2023-05-25T03:13:24.150Z,9.678104
2023-05-25T03:14:24.129Z,9.678107
2023-05-25T03:15:24.129Z,9.678144
2023-05-25T03:16:24.139Z,9.678131
2023-05-25T03:17:24.209Z,9.678129
2023-05-25T03:18:24.098Z,9.678126
2023-05-25T03:19:24.098Z,9.678144
2023-05-25T03:20:24.112Z,9.678127
2023-05-25T03:21:24.077Z,9.678122
2023-05-25T03:22:24.122Z,9.678113
2023-05-25T03:23:24.078Z,9.678126
2023-05-25T03:24:24.043Z,9.678085
2023-05-25T03:25:24.067Z,9.678094
2023-05-25T03:26:24.025Z,9.678083
2023-05-25T03:27:24.060Z,9.678106
2023-05-25T03:28:24.043Z,9.678100
2023-05-25T03:29:24.055Z,9.678127
2023-05-25T03:30:23.996Z,9.678070
2023-05-25T03:31:24.043Z,9.678119
2023-05-25T03:32:24.222Z,9.678101
2023-05-25T03:33:23.993Z,9.678103
2023-05-25T03:34:23.970Z,9.678114
2023-05-25T03:35:23.957Z,9.678142
2023-05-25T03:36:23.956Z,9.678156
2023-05-25T03:37:23.978Z,9.678146
2023-05-25T03:38:23.983Z,9.678099
2023-05-25T03:39:24.036Z,9.678144
2023-05-25T03:40:23.926Z,9.678126
2023-05-25T03:41:23.926Z,9.678146
2023-05-25T03:42:23.908Z,9.678109
2023-05-25T03:43:23.940Z,9.678118
2023-05-25T03:44:23.895Z,9.678062
2023-05-25T03:45:23.923Z,9.678091
2023-05-25T03:46:23.907Z,9.678130
2023-05-25T03:47:23.926Z,9.678168
2023-05-25T03:48:23.863Z,9.678125
2023-05-25T03:49:23.875Z,9.678171
2023-05-25T03:50:23.843Z,9.678194
2023-05-25T03:51:23.834Z,9.678197
2023-05-25T03:52:23.826Z,9.678179
2023-05-25T03:53:23.824Z,9.678160
2023-05-25T03:54:23.840Z,9.678147
2023-05-25T03:55:23.855Z,9.678122
2023-05-25T03:56:23.791Z,9.678119
2023-05-25T03:57:23.797Z,9.678204
2023-05-25T03:58:23.787Z,9.678167
2023-05-25T03:59:23.774Z,9.678155
2023-05-25T04:00:23.769Z,9.678156
2023-05-25T04:01:23.785Z,9.678178
2023-05-25T04:02:23.896Z,9.678173
2023-05-25T04:03:23.949Z,9.678178
2023-05-25T04:04:23.856Z,9.678179
2023-05-25T04:05:23.736Z,9.678170
2023-05-25T04:06:23.719Z,9.678169
2023-05-25T04:07:23.755Z,9.678174
2023-05-25T04:08:23.705Z,9.678177
2023-05-25T04:09:23.693Z,9.678166
2023-05-25T04:10:23.682Z,9.678090
2023-05-25T04:11:23.714Z,9.678167
2023-05-25T04:12:23.665Z,9.678208
2023-05-25T04:13:23.663Z,9.678196
2023-05-25T04:14:23.642Z,9.678203
2023-05-25T04:15:23.643Z,9.678172
2023-05-25T04:16:23.659Z,9.678093
2023-05-25T04:17:23.665Z,9.678090
2023-05-25T04:18:23.608Z,9.678151
2023-05-25T04:19:23.608Z,9.678160
2023-05-25T04:20:23.618Z,9.678178
2023-05-25T04:21:23.595Z,9.678164
2023-05-25T04:22:23.592Z,9.678164
2023-05-25T04:23:23.629Z,9.678154
2023-05-25T04:24:23.586Z,9.678187
2023-05-25T04:25:23.566Z,9.678164
2023-05-25T04:26:32.085Z,9.678134
2023-05-25T04:27:23.581Z,9.678134
2023-05-25T04:28:23.533Z,9.678150
2023-05-25T04:29:23.597Z,9.678172
2023-05-25T04:30:23.536Z,9.678113
2023-05-25T04:31:23.564Z,9.678189
2023-05-25T04:32:24.174Z,9.678185
2023-05-25T04:33:23.509Z,9.678158
2023-05-25T04:34:23.485Z,9.678149
2023-05-25T04:35:23.570Z,9.678166
2023-05-25T04:36:23.479Z,9.678177
2023-05-25T04:37:23.472Z,9.678152
2023-05-25T04:38:23.489Z,9.678180
2023-05-25T04:39:23.492Z,9.678113
2023-05-25T04:40:23.453Z,9.678144
2023-05-25T04:41:23.491Z,9.678087
2023-05-25T04:42:23.449Z,9.678150
2023-05-25T04:43:23.455Z,9.678142
2023-05-25T04:44:23.411Z,9.678141
2023-05-25T04:45:23.433Z,9.678160
2023-05-25T04:46:23.435Z,9.678158
2023-05-25T04:47:23.451Z,9.678151
2023-05-25T04:48:23.409Z,9.678146
2023-05-25T04:49:23.410Z,9.678153
2023-05-25T04:50:23.360Z,9.678141
2023-05-25T04:51:23.362Z,9.678151
2023-05-25T04:52:23.374Z,9.678173
2023-05-25T04:53:23.408Z,9.678151
2023-05-25T04:54:23.406Z,9.678164
2023-05-25T04:55:23.351Z,9.678176
2023-05-25T04:56:23.479Z,9.678186
2023-05-25T04:57:23.374Z,9.678151
2023-05-25T04:58:23.365Z,9.678196
2023-05-25T04:59:23.335Z,9.678169
2023-05-25T05:00:23.314Z,9.678154
2023-05-25T05:01:23.574Z,9.678130
2023-05-25T05:02:23.406Z,9.678117
2023-05-25T05:03:23.351Z,9.678120
2023-05-25T05:04:23.514Z,9.678155
2023-05-25T05:05:23.317Z,9.678173
2023-05-25T05:06:23.249Z,9.678185
2023-05-25T05:07:23.270Z,9.678179
2023-05-25T05:08:23.243Z,9.678162
2023-05-25T05:09:23.376Z,9.678162
2023-05-25T05:10:23.233Z,9.678173
2023-05-25T05:11:23.567Z,9.678170
2023-05-25T05:12:23.205Z,9.678193
2023-05-25T05:13:23.219Z,9.678182
2023-05-25T05:14:24.181Z,9.678174
2023-05-25T05:15:23.189Z,9.678209
2023-05-25T05:16:23.287Z,9.678190
2023-05-25T05:17:23.182Z,9.678185
2023-05-25T05:18:23.155Z,9.678160
2023-05-25T05:19:24.006Z,9.678195
2023-05-25T05:20:23.182Z,9.678198
2023-05-25T05:21:23.530Z,9.678153
2023-05-25T05:22:23.132Z,9.678204
2023-05-25T05:23:23.125Z,9.678207
2023-05-25T05:24:23.092Z,9.678175
2023-05-25T05:25:23.140Z,9.678180
2023-05-25T05:26:23.071Z,9.678218
2023-05-25T05:27:23.116Z,9.678179
2023-05-25T05:28:23.067Z,9.678178
2023-05-25T05:29:23.059Z,9.678164
2023-05-25T05:30:23.040Z,9.678133
2023-05-25T05:31:23.105Z,9.678157
2023-05-25T05:32:23.060Z,9.678182
2023-05-25T05:33:23.063Z,9.678152
2023-05-25T05:34:23.007Z,9.678149
2023-05-25T05:35:23.004Z,9.678190
2023-05-25T05:36:23.067Z,9.678121
2023-05-25T05:37:22.982Z,9.678181
2023-05-25T05:38:22.995Z,9.678174
2023-05-25T05:39:23.019Z,9.678107
2023-05-25T05:40:22.953Z,9.678163
2023-05-25T05:41:22.943Z,9.678186
2023-05-25T05:42:22.930Z,9.678191
2023-05-25T05:43:22.970Z,9.678146
2023-05-25T05:44:24.585Z,9.678172
2023-05-25T05:45:22.933Z,9.678172
2023-05-25T05:46:22.923Z,9.678169
2023-05-25T05:47:22.903Z,9.678137
2023-05-25T05:48:22.874Z,9.678187
2023-05-25T05:49:22.949Z,9.678189
2023-05-25T05:50:23.162Z,9.678180
2023-05-25T05:51:22.872Z,9.678173
2023-05-25T05:52:22.847Z,9.678162
2023-05-25T05:53:23.076Z,9.678145
2023-05-25T05:54:22.890Z,9.678185
2023-05-25T05:55:22.873Z,9.678183
2023-05-25T05:56:22.809Z,9.678205
2023-05-25T05:57:22.805Z,9.678201
2023-05-25T05:58:23.703Z,9.678168
2023-05-25T05:59:22.793Z,9.678163
2023-05-25T06:00:22.920Z,9.678153
2023-05-25T06:01:22.819Z,9.678165
2023-05-25T06:02:22.901Z,9.678146
2023-05-25T06:03:22.816Z,9.678168
2023-05-25T06:04:22.890Z,9.678155
2023-05-25T06:05:23.676Z,9.678211
2023-05-25T06:06:22.745Z,9.678152
2023-05-25T06:07:22.802Z,9.678164
2023-05-25T06:08:22.712Z,9.678170
2023-05-25T06:09:22.704Z,9.678159
2023-05-25T06:10:22.722Z,9.678154
2023-05-25T06:11:22.682Z,9.678159
2023-05-25T06:12:22.694Z,9.678185
2023-05-25T06:13:22.693Z,9.678204
2023-05-25T06:14:22.669Z,9.678212
2023-05-25T06:15:22.674Z,9.678179
2023-05-25T06:16:22.689Z,9.678255
2023-05-25T06:17:22.743Z,9.678129
2023-05-25T06:18:22.750Z,9.678149
2023-05-25T06:19:22.669Z,9.678134
2023-05-25T06:20:22.702Z,9.678185
2023-05-25T06:21:22.596Z,9.678213
2023-05-25T06:22:22.586Z,9.678177
2023-05-25T06:23:22.609Z,9.678211
2023-05-25T06:24:22.652Z,9.678202
2023-05-25T06:25:22.626Z,9.678156
2023-05-25T06:26:22.591Z,9.678197
2023-05-25T06:27:22.539Z,9.678145
2023-05-25T06:28:22.609Z,9.678184
2023-05-25T06:29:22.535Z,9.678164
2023-05-25T06:30:22.769Z,9.678175
2023-05-25T06:31:22.546Z,9.678199
2023-05-25T06:32:22.573Z,9.678191
2023-05-25T06:33:22.490Z,9.678228
2023-05-25T06:34:22.511Z,9.678179
2023-05-25T06:35:22.486Z,9.678194
2023-05-25T06:36:22.621Z,9.678201
2023-05-25T06:37:22.472Z,9.678191
2023-05-25T06:38:22.481Z,9.678176
2023-05-25T06:39:22.462Z,9.678189
2023-05-25T06:40:23.191Z,9.678130
2023-05-25T06:41:22.426Z,9.678139
2023-05-25T06:42:22.431Z,9.678134
2023-05-25T06:43:22.493Z,9.678201
2023-05-25T06:44:22.438Z,9.678196
2023-05-25T06:45:22.405Z,9.678174
2023-05-25T06:46:22.491Z,9.678169
2023-05-25T06:47:22.457Z,9.678169
2023-05-25T06:48:22.404Z,9.678142
2023-05-25T06:49:22.362Z,9.678062
2023-05-25T06:50:23.207Z,9.678141
2023-05-25T06:51:22.390Z,9.678167
2023-05-25T06:52:22.362Z,9.678217
2023-05-25T06:53:22.370Z,9.678145
2023-05-25T06:54:22.333Z,9.678151
2023-05-25T06:55:22.303Z,9.678218
2023-05-25T06:56:22.337Z,9.678180
2023-05-25T06:57:22.334Z,9.678183
2023-05-25T06:58:22.301Z,9.678212
2023-05-25T06:59:22.308Z,9.678103
2023-05-25T07:00:22.281Z,9.678099
2023-05-25T07:01:22.288Z,9.678153
2023-05-25T07:02:22.312Z,9.678194
2023-05-25T07:03:22.330Z,9.678222
2023-05-25T07:04:22.251Z,9.678137
2023-05-25T07:05:22.305Z,9.678190
2023-05-25T07:06:22.246Z,9.678146
2023-05-25T07:07:22.228Z,9.678127
2023-05-25T07:08:22.225Z,9.678078
2023-05-25T07:09:22.278Z,9.678115
2023-05-25T07:10:22.212Z,9.678120
2023-05-25T07:11:22.189Z,9.678128
2023-05-25T07:12:22.229Z,9.678093
2023-05-25T07:13:22.174Z,9.678048
2023-05-25T07:14:22.193Z,9.678082
2023-05-25T07:15:22.198Z,9.678095
2023-05-25T07:16:22.223Z,9.678072
2023-05-25T07:17:22.187Z,9.678160
2023-05-25T07:18:22.125Z,9.678188
2023-05-25T07:19:22.123Z,9.678101
2023-05-25T07:20:22.768Z,9.678067
2023-05-25T07:21:22.125Z,9.678110
2023-05-25T07:22:22.112Z,9.678102
2023-05-25T07:23:22.085Z,9.678061
2023-05-25T07:24:22.092Z,9.678123
2023-05-25T07:25:22.103Z,9.678113
2023-05-25T07:26:22.079Z,9.678140
2023-05-25T07:27:22.068Z,9.678148
2023-05-25T07:28:22.143Z,9.677986
2023-05-25T07:29:22.096Z,9.678089
2023-05-25T07:30:22.062Z,9.678119
2023-05-25T07:31:22.123Z,9.678081
2023-05-25T07:32:22.079Z,9.678040
2023-05-25T07:33:22.012Z,9.678113
2023-05-25T07:34:22.002Z,9.678109
2023-05-25T07:35:22.016Z,9.678148
2023-05-25T07:36:21.996Z,9.678109
2023-05-25T07:37:22.001Z,9.678089
2023-05-25T07:38:21.989Z,9.678166
2023-05-25T07:39:21.974Z,9.678124
2023-05-25T07:40:21.990Z,9.678082
2023-05-25T07:41:21.959Z,9.678137
2023-05-25T07:42:21.962Z,9.678105
2023-05-25T07:43:21.996Z,9.678072
2023-05-25T07:44:21.932Z,9.678096
2023-05-25T07:45:21.996Z,9.678153
2023-05-25T07:46:21.907Z,9.678123
2023-05-25T07:47:21.912Z,9.678134
2023-05-25T07:48:21.930Z,9.678132
2023-05-25T07:49:21.907Z,9.678167
2023-05-25T07:50:21.871Z,9.678201
2023-05-25T07:51:21.854Z,9.678077
2023-05-25T07:52:21.899Z,9.678068
2023-05-25T07:53:21.834Z,9.678060
2023-05-25T07:54:21.835Z,9.678206
2023-05-25T07:55:21.840Z,9.678185
2023-05-25T07:56:21.826Z,9.678215
2023-05-25T07:57:21.799Z,9.678200
2023-05-25T07:58:21.799Z,9.678193
2023-05-25T07:59:21.792Z,9.678153
2023-05-25T08:00:21.839Z,9.678133
2023-05-25T08:01:21.755Z,9.678164
2023-05-25T08:02:21.866Z,9.678195
2023-05-25T08:03:31.687Z,9.678183
2023-05-25T08:04:22.853Z,9.678188
2023-05-25T08:05:21.722Z,9.678141
2023-05-25T08:06:21.738Z,9.678126
2023-05-25T08:07:21.728Z,9.678144
2023-05-25T08:08:21.699Z,9.678123
2023-05-25T08:09:21.713Z,9.678163
2023-05-25T08:10:21.755Z,9.678154
2023-05-25T08:11:21.671Z,9.678169
2023-05-25T08:12:38.594Z,9.678142
2023-05-25T08:13:22.655Z,9.678171
2023-05-25T08:14:21.652Z,9.678151
2023-05-25T08:15:21.682Z,9.678143
2023-05-25T08:16:21.677Z,9.678144
2023-05-25T08:17:21.715Z,9.678163
2023-05-25T08:18:21.641Z,9.678162
2023-05-25T08:19:21.648Z,9.678209
2023-05-25T08:20:22.083Z,9.678204
2023-05-25T08:21:21.712Z,9.678194
2023-05-25T08:22:21.590Z,9.678168
2023-05-25T08:23:24.226Z,9.678119
2023-05-25T08:24:21.582Z,9.678108
2023-05-25T08:25:21.600Z,9.678196
2023-05-25T08:27:22.517Z,9.678165
2023-05-25T08:28:21.590Z,9.678194
2023-05-25T08:29:21.505Z,9.678151
2023-05-25T08:30:21.513Z,9.678131
2023-05-25T08:31:21.543Z,9.678153
2023-05-25T08:32:21.572Z,9.678157
2023-05-25T08:33:21.849Z,9.678167
2023-05-25T08:34:21.529Z,9.678151
2023-05-25T08:35:21.482Z,9.678146
2023-05-25T08:36:21.457Z,9.678156
2023-05-25T08:37:21.437Z,9.678120
2023-05-25T08:38:21.441Z,9.678127
2023-05-25T08:39:21.436Z,9.678130
2023-05-25T08:40:21.466Z,9.678154
2023-05-25T08:41:21.586Z,9.678114
2023-05-25T08:42:21.404Z,9.678108
2023-05-25T08:43:21.445Z,9.678140
2023-05-25T08:44:21.370Z,9.678149
2023-05-25T08:45:34.374Z,9.678141
2023-05-25T08:46:22.394Z,9.678134
2023-05-25T08:47:21.347Z,9.678155
2023-05-25T08:48:35.558Z,9.678103
2023-05-25T08:49:22.379Z,9.678150
2023-05-25T08:50:21.365Z,9.678089
2023-05-25T08:51:21.317Z,9.678112
2023-05-25T08:52:21.345Z,9.678120
2023-05-25T08:53:21.298Z,9.678102
2023-05-25T08:54:21.311Z,9.678177
2023-05-25T08:55:21.267Z,9.678167
2023-05-25T08:56:21.283Z,9.678141
2023-05-25T08:57:21.279Z,9.678133
2023-05-25T08:58:21.274Z,9.678189
2023-05-25T08:59:21.261Z,9.678165
2023-05-25T09:00:21.249Z,9.678126
2023-05-25T09:01:21.315Z,9.678134
2023-05-25T09:02:21.284Z,9.678145
2023-05-25T09:03:21.292Z,9.678111
2023-05-25T09:04:21.351Z,9.678103
2023-05-25T09:05:21.191Z,9.678134
2023-05-25T09:06:21.197Z,9.678158
2023-05-25T09:07:21.229Z,9.678139
2023-05-25T09:08:21.222Z,9.678126
2023-05-25T09:09:21.204Z,9.678057
2023-05-25T09:10:21.165Z,9.678100
2023-05-25T09:11:31.394Z,9.678091
2023-05-25T09:12:22.351Z,9.678075
2023-05-25T09:13:22.455Z,9.678110
2023-05-25T09:14:21.121Z,9.678089
2023-05-25T09:15:21.117Z,9.678110
2023-05-25T09:16:21.099Z,9.678109
2023-05-25T09:17:21.077Z,9.678118
2023-05-25T09:18:21.096Z,9.678082
2023-05-25T09:19:21.067Z,9.678081
2023-05-25T09:20:21.137Z,9.678099
2023-05-25T09:21:21.122Z,9.678077
2023-05-25T09:22:21.089Z,9.678060
2023-05-25T09:23:21.043Z,9.678135
2023-05-25T09:24:21.077Z,9.678131
2023-05-25T09:25:21.023Z,9.678196
2023-05-25T09:26:21.024Z,9.678089
2023-05-25T09:27:21.055Z,9.678074
2023-05-25T09:29:20.988Z,9.678182
2023-05-25T09:30:20.986Z,9.678127
2023-05-25T09:31:20.976Z,9.678160
2023-05-25T09:32:21.205Z,9.678127
2023-05-25T09:33:21.028Z,9.678161
2023-05-25T09:34:20.979Z,9.678173
2023-05-25T09:35:20.945Z,9.678177
2023-05-25T09:36:21.054Z,9.678101
2023-05-25T09:37:21.145Z,9.678091
2023-05-25T09:38:21.087Z,9.678130
2023-05-25T09:39:20.973Z,9.678131
2023-05-25T09:40:20.930Z,9.678086
2023-05-25T09:41:20.917Z,9.678075
2023-05-25T09:42:20.892Z,9.678119
2023-05-25T09:43:36.363Z,9.678167
2023-05-25T09:44:21.884Z,9.678101
2023-05-25T09:45:20.862Z,9.678150
2023-05-25T09:46:20.935Z,9.678176
2023-05-25T09:47:20.945Z,9.678126
2023-05-25T09:48:20.873Z,9.678182
2023-05-25T09:49:20.826Z,9.678149
2023-05-25T09:50:20.839Z,9.678139
2023-05-25T09:51:20.815Z,9.678094
2023-05-25T09:52:20.813Z,9.678122
2023-05-25T09:53:20.835Z,9.678119
2023-05-25T09:54:20.793Z,9.678113
2023-05-25T09:55:20.778Z,9.678144
2023-05-25T09:56:20.771Z,9.678156
2023-05-25T09:57:20.763Z,9.678137
2023-05-25T09:58:20.777Z,9.678171
2023-05-25T09:59:20.788Z,9.678119
2023-05-25T10:00:20.744Z,9.678081
2023-05-25T10:01:20.823Z,9.678131
2023-05-25T10:02:20.747Z,9.678154
2023-05-25T10:03:20.713Z,9.678099
2023-05-25T10:04:20.966Z,9.678069
2023-05-25T10:05:20.732Z,9.678113
2023-05-25T10:06:20.703Z,9.678112
2023-05-25T10:07:20.713Z,9.678131
2023-05-25T10:08:20.720Z,9.678094
2023-05-25T10:09:20.772Z,9.678134
2023-05-25T10:10:20.725Z,9.678143
2023-05-25T10:11:20.694Z,9.678107
2023-05-25T10:12:20.691Z,9.678114
2023-05-25T10:13:20.624Z,9.678105
2023-05-25T10:14:20.682Z,9.678111
2023-05-25T10:15:20.663Z,9.678141
2023-05-25T10:16:20.714Z,9.678116
2023-05-25T10:17:20.620Z,9.678090
2023-05-25T10:18:20.591Z,9.678096
2023-05-25T10:19:20.602Z,9.678065
2023-05-25T10:20:21.376Z,9.678074
2023-05-25T10:21:20.595Z,9.678106
2023-05-25T10:22:20.689Z,9.678114
2023-05-25T10:23:20.562Z,9.678076
2023-05-25T10:24:20.550Z,9.678055
2023-05-25T10:25:20.547Z,9.678088
2023-05-25T10:26:20.520Z,9.678075
2023-05-25T10:28:21.533Z,9.678110
2023-05-25T10:29:20.586Z,9.678102
2023-05-25T10:30:20.490Z,9.678077
2023-05-25T10:31:20.608Z,9.678056
2023-05-25T10:32:20.475Z,9.678094
2023-05-25T10:33:20.504Z,9.678080
2023-05-25T10:34:20.607Z,9.678072
2023-05-25T10:35:20.522Z,9.678107
2023-05-25T10:36:20.453Z,9.678113
2023-05-25T10:37:20.446Z,9.678149
2023-05-25T10:38:20.422Z,9.678115
2023-05-25T10:39:20.443Z,9.678090
2023-05-25T10:40:20.424Z,9.678119
2023-05-25T10:41:20.427Z,9.678093
2023-05-25T10:42:20.378Z,9.678117
2023-05-25T10:43:20.398Z,9.678094
2023-05-25T10:44:20.422Z,9.678078
2023-05-25T10:45:20.389Z,9.678102
2023-05-25T10:46:20.443Z,9.678119
2023-05-25T10:47:20.478Z,9.678123
2023-05-25T10:48:20.355Z,9.678125
2023-05-25T10:49:20.341Z,9.678106
2023-05-25T10:50:21.323Z,9.678118
2023-05-25T10:51:20.341Z,9.678120
2023-05-25T10:52:20.308Z,9.678138
2023-05-25T10:53:20.322Z,9.678174
2023-05-25T10:54:20.311Z,9.678130
2023-05-25T10:55:20.318Z,9.678103
2023-05-25T10:56:20.272Z,9.678100
2023-05-25T10:57:20.275Z,9.678083
2023-05-25T10:58:20.261Z,9.678089
2023-05-25T10:59:20.245Z,9.678105
2023-05-25T11:00:20.304Z,9.678112
2023-05-25T11:01:20.364Z,9.678106
2023-05-25T11:02:20.219Z,9.678095
2023-05-25T11:03:20.507Z,9.678118
2023-05-25T11:04:20.287Z,9.678111
2023-05-25T11:05:20.204Z,9.678120
2023-05-25T11:06:20.191Z,9.678115
2023-05-25T11:07:20.236Z,9.678114
2023-05-25T11:08:20.185Z,9.678099
2023-05-25T11:09:20.197Z,9.678104
2023-05-25T11:10:20.159Z,9.678082
2023-05-25T11:11:20.165Z,9.678087
2023-05-25T11:12:20.177Z,9.678072
2023-05-25T11:13:20.146Z,9.678059
2023-05-25T11:14:20.152Z,9.678041
2023-05-25T11:15:20.116Z,9.678063
2023-05-25T11:16:20.171Z,9.678023
2023-05-25T11:17:20.163Z,9.678072
2023-05-25T11:18:20.109Z,9.678096
2023-05-25T11:19:20.095Z,9.678089
2023-05-25T11:20:20.137Z,9.678052
2023-05-25T11:21:20.088Z,9.678094
2023-05-25T11:22:20.054Z,9.678079
2023-05-25T11:23:20.115Z,9.678070
2023-05-25T11:24:20.136Z,9.678095
2023-05-25T11:25:20.046Z,9.678115
2023-05-25T11:26:20.052Z,9.678050
2023-05-25T11:27:20.086Z,9.678088
2023-05-25T11:28:20.071Z,9.678077
2023-05-25T11:29:20.030Z,9.678068
2023-05-25T11:30:20.035Z,9.678099
2023-05-25T11:31:20.101Z,9.678112
2023-05-25T11:32:20.091Z,9.678095
2023-05-25T11:33:19.997Z,9.678084
2023-05-25T11:34:19.972Z,9.678084
2023-05-25T11:35:20.368Z,9.678074
2023-05-25T11:36:19.940Z,9.678098
2023-05-25T11:37:19.959Z,9.678105
2023-05-25T11:38:19.979Z,9.678130
2023-05-25T11:39:22.915Z,9.678074
2023-05-25T11:40:19.928Z,9.678081
2023-05-25T11:41:19.973Z,9.678110
2023-05-25T11:42:19.916Z,9.678045
2023-05-25T11:43:19.899Z,9.678066
2023-05-25T11:44:19.892Z,9.678124
2023-05-25T11:45:19.883Z,9.678114
2023-05-25T11:46:19.920Z,9.678036
2023-05-25T11:47:19.916Z,9.678091